• Join FlightAware (Why Join?)
  • Login
  • US Flag 
01:52AM EST


 

Airport Tracker/Info


-or-


 

Live Flight TrackerFlight Track Log ✈ DAL3672 ✈ 21-Apr-2013 ✈ KDTW - KMHT

Flight Track Log - Related Links

Times and Time Zones

All times are in EDT time to prevent confusion due to time zone crossing. See the DAL3672 flight status page for this flight to view local times or setup timezone preferences in your user account.

Time Position Orientation Groundspeed Altitude Reporting Facility
EDT Latitude Longitude Course Direction KTS MPH feet Rate Location/Type
10:18AM 42.2056 -83.3528 94° East 153 176 1,200  Level FAA TRACON SMA TRACON (SMA)
10:19AM 42.1925 -83.3542 185° South 150 173 1,100 1,980 Descending FAA TRACON SMA TRACON (SMA)
10:19AM 42.1789 -83.3547 182° South 183 211 2,500 3,600 Climbing FAA TRACON SMA TRACON (SMA)
10:19AM 42.1594 -83.3544 179° South 195 224 3,500 3,060 Climbing FAA TRACON SMA TRACON (SMA)
10:20AM 42.1392 -83.3542 179° South 204 235 4,600 2,220 Climbing FAA TRACON SMA TRACON (SMA)
10:20AM 42.1211 -83.3544 181° South 237 273 5,000 1,800 Climbing FAA TRACON SMA TRACON (SMA)
10:20AM 42.0939 -83.3533 178° South 261 300 5,800 2,580 Climbing FAA TRACON SMA TRACON (SMA)
10:21AM 42.0711 -83.3508 175° South 262 302 6,800 2,880 Climbing FAA TRACON SMA TRACON (SMA)
10:21AM 42.0525 -83.3336 146° Southeast 265 305 7,800 3,000 Climbing FAA TRACON SMA TRACON (SMA)
10:21AM 42.0450 -83.2972 106° East 256 295 8,800 2,700 Climbing FAA TRACON SMA TRACON (SMA)
10:22AM 42.3169 -82.7070 78° East  Level FlightAware Approximate
10:22AM 42.0497 -83.2658 79° East 295 339 9,600  Level FAA TRACON SMA TRACON (SMA)
10:22AM 42.0597 -83.2342 67° East 297 342 10,000 720 Climbing FAA TRACON SMA TRACON (SMA)
10:22AM 42.0747 -83.1961 62° Northeast 312 359 10,100 120 Climbing FAA TRACON SMA TRACON (SMA)
10:23AM 42.3401 -82.5430 77° East  Level FlightAware Approximate
10:23AM 42.0872 -83.1647 62° Northeast 310 357 10,100  Level FAA TRACON SMA TRACON (SMA)
10:23AM 42.1031 -83.1253 62° Northeast 312 359 10,200 1,020 Climbing FAA TRACON SMA TRACON (SMA)
10:23AM 42.1219 -83.0997 45° Northeast 300 345 10,800 2,100 Climbing FAA TRACON SMA TRACON (SMA)
10:24AM 42.3631 -82.3842 94° East  Level FlightAware Approximate
10:24AM 42.1422 -83.0739 43° Northeast 324 373 11,600  Level FAA TRACON SMA TRACON (SMA)
10:24AM 42.1553 -83.0411 62° Northeast 316 364 12,300 2,100 Climbing FAA TRACON SMA TRACON (SMA)
10:24AM 42.1706 -82.9969 65° Northeast 330 380 13,000 1,140 Climbing FAA TRACON SMA TRACON (SMA)
10:25AM 42.1836 -82.9619 63° Northeast 337 388 13,100 120 Climbing FAA TRACON SMA TRACON (SMA)
10:25AM 42.1961 -82.9272 64° Northeast 336 387 13,100  Level FAA TRACON SMA TRACON (SMA)
10:25AM 42.2122 -82.8839 63° Northeast 336 387 13,100  Level FAA TRACON SMA TRACON (SMA)
10:26AM 42.2247 -82.8489 64° Northeast 336 387 13,100  Level FAA TRACON SMA TRACON (SMA)
10:26AM 42.2375 -82.8139 64° Northeast 338 389 13,100 120 Level FAA TRACON SMA TRACON (SMA)
10:26AM 42.2533 -82.7697 64° Northeast 337 388 13,200 1,200 Climbing FAA TRACON SMA TRACON (SMA)
10:27AM 42.2661 -82.7344 64° Northeast 339 390 13,900 2,220 Climbing FAA TRACON SMA TRACON (SMA)
10:27AM 42.2825 -82.6903 63° Northeast 341 392 14,700 2,220 Climbing FAA TRACON SMA TRACON (SMA)
10:27AM 42.2956 -82.6542 64° Northeast 344 396 15,400 1,800 Climbing FAA TRACON SMA TRACON (SMA)
10:28AM 42.3097 -82.6175 62° Northeast 353 406 15,900 1,920 Climbing FAA TRACON SMA TRACON (SMA)
10:28AM 42.3261 -82.5703 65° Northeast 359 413 16,700 2,100 Climbing FAA TRACON SMA TRACON (SMA)
10:28AM 42.3397 -82.5325 64° Northeast 362 417 17,300 1,620 Climbing FAA TRACON SMA TRACON (SMA)
10:29AM 42.3539 -82.4939 64° Northeast 370 426 17,800 720 Climbing FAA TRACON SMA TRACON (SMA)
10:29AM 42.3656 -82.4414 73° East 383 441 17,800 720 Level FAA TRACON SMA TRACON (SMA)
10:29AM 42.3669 -82.3972 88° East 387 445 18,300 1,500 Climbing FAA TRACON SMA TRACON (SMA)
10:30AM 42.3650 -82.3519 93° East 394 453 18,800 1,620 Climbing FAA TRACON SMA TRACON (SMA)
10:30AM 42.3628 -82.3064 94° East 395 455 19,400 1,800 Climbing FAA TRACON SMA TRACON (SMA)
10:30AM 42.3603 -82.2492 93° East 396 456 20,000 1,500 Climbing FAA TRACON SMA TRACON (SMA)
10:31AM 42.3586 -82.2011 93° East 398 458 20,400 900 Climbing FAA TRACON SMA TRACON (SMA)
10:31AM 42.3586 -82.1894 90° East 398 458 20,600 300 Climbing FAA TRACON SMA TRACON (SMA)
10:31AM 42.3586 -82.1894 289° West 398 458 20,600 1,500 Level FAA TRACON SMA TRACON (SMA)
10:32AM 42.3478 -81.9597 94° East 400 460 22,500 1,680 Climbing Cleveland Center
10:33AM 42.3392 -81.7994 94° East 421 484 23,800 1,140 Climbing Cleveland Center
10:34AM 42.3325 -81.6392 93° East 427 491 24,800 900 Climbing Cleveland Center
10:35AM 42.3253 -81.4761 93° East 432 497 25,700 780 Climbing Cleveland Center
10:36AM 42.3183 -81.3075 93° East 443 510 26,400 720 Climbing Cleveland Center
10:37AM 42.3067 -81.1364 95° East 453 521 27,200 600 Climbing Cleveland Center
10:38AM 42.2992 -80.9789 94° East 459 528 27,700 480 Climbing Cleveland Center
10:39AM 42.2911 -80.7992 93° East 469 540 28,200 480 Climbing Cleveland Center
10:40AM 42.2789 -80.6225 95° East 469 540 28,700 480 Climbing Cleveland Center
10:41AM 42.2706 -80.4428 94° East 480 552 29,200 540 Climbing Cleveland Center
10:42AM 42.2597 -80.2633 95° East 480 552 29,800 540 Climbing Cleveland Center
10:43AM 42.2508 -80.0811 94° East 480 552 30,300 480 Climbing Cleveland Center
10:44AM 42.2392 -79.8819 94° East 480 552 30,800 300 Climbing Cleveland Center
10:45AM 42.2275 -79.7000 95° East 480 552 31,000 60 Climbing Cleveland Center
10:46AM 42.2136 -79.5206 96° East 480 552 31,000  Level Cleveland Center
10:47AM 42.2033 -79.3414 94° East 480 552 31,000  Level Cleveland Center
10:48AM 42.1908 -79.1622 95° East 480 552 31,000  Level Cleveland Center
10:49AM 42.2053 -78.9797 84° East 480 552 31,000  Level Cleveland Center
10:50AM 42.2317 -78.7969 79° East 485 558 31,000  Level Cleveland Center
10:51AM 42.2558 -78.6139 80° East 490 564 31,000  Level Cleveland Center
10:52AM 42.2775 -78.4278 81° East 490 564 31,000  Level Cleveland Center
10:53AM 42.2989 -78.2447 81° East 490 564 31,000  Level Cleveland Center
10:54AM 42.3200 -78.0614 81° East 490 564 31,000  Level Cleveland Center
10:55AM 42.3450 -77.8750 80° East 490 564 31,000  Level Cleveland Center
10:56AM 42.3636 -77.6942 82° East 490 564 31,000  Level Cleveland Center
10:57AM 42.3858 -77.5106 81° East 490 564 31,000  Level Cleveland Center
10:58AM 42.4058 -77.3239 82° East 490 564 31,000  Level Cleveland Center
11:01AM 42.4492 -76.9317 81° East 502 578 31,000  Level Boston Center
11:02AM 42.4689 -76.7444 82° East 502 578 31,000  Level Boston Center
11:03AM 42.4903 -76.5600 81° East 502 578 31,000  Level Boston Center
11:04AM 42.5094 -76.3725 82° East 502 578 31,000  Level Boston Center
11:05AM 42.5286 -76.1792 82° East 502 578 31,000  Level Boston Center
11:06AM 42.5492 -75.9914 81° East 502 578 31,000  Level Boston Center
11:07AM 42.5675 -75.8036 82° East 502 578 31,000  Level Boston Center
11:08AM 42.5853 -75.6128 83° East 502 578 31,000  Level Boston Center
11:09AM 42.6050 -75.4219 82° East 502 578 31,000  Level Boston Center
11:10AM 42.6225 -75.2336 83° East 502 578 31,000  Level Boston Center
11:11AM 42.6394 -75.0425 83° East 502 578 31,000 -300 Level Boston Center
11:12AM 42.6589 -74.8286 83° East 508 585 30,500 -1,020 Descending Boston Center
11:13AM 42.6750 -74.6400 83° East 508 585 29,000 -1,020 Descending Boston Center
11:14AM 42.6933 -74.4486 83° East 508 585 28,500 -1,020 Descending Boston Center
11:15AM 42.7089 -74.2625 83° East 508 585 27,000 -1,500 Descending Boston Center
11:16AM 42.7222 -74.0736 84° East 503 579 25,500 -1,500 Descending Boston Center
11:17AM 42.7392 -73.8958 83° East 489 563 24,000 -1,380 Descending Boston Center
11:18AM 42.7472 -73.7519 86° East 479 551 22,800 -1,380 Descending Boston Center
11:19AM 42.7575 -73.5628 86° East 473 544 21,300 -1,500 Descending Boston Center
11:20AM 42.7633 -73.3903 87° East 462 532 19,800 -1,200 Descending Boston Center
11:21AM 42.7667 -73.2008 89° East 457 526 19,000 -420 Descending Boston Center
11:22AM 42.7697 -73.0397 88° East 437 503 19,000 -120 Level Boston Center
11:23AM 42.7789 -72.8900 85° East 432 497 18,800 -900 Descending Boston Center
11:24AM 42.7836 -72.7314 88° East 432 497 17,300 -1,800 Descending Boston Center
11:25AM 42.7881 -72.5758 88° East 419 482 15,300 -1,860 Descending Boston Center
11:26AM 42.7922 -72.4344 88° East 396 456 13,600 -1,800 Descending Boston Center
11:27AM 42.7964 -72.3072 87° East 360 414 11,800 -1,620 Descending Boston Center
11:28AM 42.8106 -72.1883 81° East 320 368 10,100 -780 Descending Boston Center
11:29AM 42.8186 -72.0553 85° East 292 336 10,100 -300 Level Boston Center
11:30AM 42.8078 -71.9306 97° East 292 336 9,600 -840 Descending Boston Center
11:31AM 42.7989 -71.8403 98° East 280 322 8,500 -1,200 Descending Boston Center
11:32AM 42.7858 -71.7356 100° East 262 302 7,200 -1,260 Descending Boston Center
11:33AM 42.7769 -71.6567 99° East 237 273 6,000 -1,260 Descending Boston Center
11:34AM 42.7867 -71.5686 81° East 222 255 4,700 -1,320 Descending Boston Center
11:35AM 42.7967 -71.4950 79° East 217 250 3,400 -1,020 Descending Boston Center
11:36AM 42.8064 -71.4128 81° East 209 241 2,700 -600 Descending Boston Center
11:37AM 42.8331 -71.3783 43° Northeast 135 155 2,300 -420 Descending Boston Center